VOI9253 MMMX-MMLO
Flight info
| Callsign | VOI9253 |
|---|---|
| Flight time | N/A |
| Altitude | 28000 |
| Route | SEBON3B SEBON UT125 MLM UJ40 OMINA OMINA1D |
| Aircraft | A320/M-SDE3FGHIRWY/LB1 |
Departure
| Time | 2026-05-04 00:30 |
|---|---|
| Airport | Mexico City Benito Juárez International Airport (MMMX) |
Arrival
| Time | N/A |
|---|---|
| Airport | Guanajuato International Airport (MMLO) |
| Time | Latitude | Longitude | Altitude | Speed | Heading |
|---|---|---|---|---|---|
| 2026-05-04 00:03 | 19.43319 | -99.08472 | 7303 ft | 0 kts | 329° |
| 2026-05-04 00:11 | 19.43319 | -99.08471 | 7303 ft | 0 kts | 329° |
| 2026-05-04 00:14 | 19.43305 | -99.08463 | 7303 ft | 4 kts | 332° |
| 2026-05-04 00:14 | 19.43280 | -99.08451 | 7303 ft | 4 kts | 341° |
| 2026-05-04 00:14 | 19.43254 | -99.08444 | 7303 ft | 4 kts | 358° |
| 2026-05-04 00:14 | 19.43230 | -99.08448 | 7303 ft | 4 kts | 45° |
| 2026-05-04 00:15 | 19.43225 | -99.08453 | 7303 ft | 1 kts | 59° |
| 2026-05-04 00:17 | 19.43225 | -99.08454 | 7303 ft | 0 kts | 59° |
| 2026-05-04 00:22 | 19.43227 | -99.08449 | 7303 ft | 2 kts | 60° |
| 2026-05-04 00:22 | 19.43245 | -99.08416 | 7303 ft | 8 kts | 60° |
| 2026-05-04 00:22 | 19.43286 | -99.08341 | 7303 ft | 15 kts | 60° |
| 2026-05-04 00:23 | 19.43347 | -99.08230 | 7303 ft | 18 kts | 58° |
| 2026-05-04 00:23 | 19.43418 | -99.08109 | 7303 ft | 20 kts | 58° |
| 2026-05-04 00:23 | 19.43490 | -99.07981 | 7303 ft | 20 kts | 59° |
| 2026-05-04 00:23 | 19.43563 | -99.07852 | 7303 ft | 21 kts | 59° |
| 2026-05-04 00:24 | 19.43637 | -99.07719 | 7303 ft | 21 kts | 59° |
| 2026-05-04 00:24 | 19.43712 | -99.07583 | 7303 ft | 22 kts | 59° |
| 2026-05-04 00:24 | 19.43790 | -99.07446 | 7303 ft | 22 kts | 59° |
| 2026-05-04 00:24 | 19.43869 | -99.07306 | 7303 ft | 22 kts | 59° |
| 2026-05-04 00:25 | 19.43949 | -99.07162 | 7303 ft | 23 kts | 59° |
| 2026-05-04 00:25 | 19.44031 | -99.07019 | 7303 ft | 23 kts | 59° |
| 2026-05-04 00:25 | 19.44104 | -99.06888 | 7303 ft | 18 kts | 59° |
| 2026-05-04 00:25 | 19.44169 | -99.06774 | 7303 ft | 18 kts | 58° |
| 2026-05-04 00:26 | 19.44233 | -99.06659 | 7303 ft | 18 kts | 59° |
| 2026-05-04 00:26 | 19.44299 | -99.06541 | 7303 ft | 19 kts | 59° |
| 2026-05-04 00:26 | 19.44368 | -99.06420 | 7303 ft | 18 kts | 59° |
| 2026-05-04 00:26 | 19.44410 | -99.06345 | 7303 ft | 9 kts | 61° |
| 2026-05-04 00:27 | 19.44419 | -99.06317 | 7303 ft | 0 kts | 78° |
| 2026-05-04 00:27 | 19.44420 | -99.06311 | 7303 ft | 1 kts | 80° |
| 2026-05-04 00:27 | 19.44421 | -99.06296 | 7303 ft | 2 kts | 87° |
| 2026-05-04 00:27 | 19.44419 | -99.06276 | 7303 ft | 4 kts | 101° |
| 2026-05-04 00:28 | 19.44407 | -99.06240 | 7303 ft | 7 kts | 110° |
| 2026-05-04 00:28 | 19.44383 | -99.06193 | 7302 ft | 8 kts | 147° |
| 2026-05-04 00:28 | 19.44349 | -99.06218 | 7301 ft | 7 kts | 241° |
| 2026-05-04 00:28 | 19.44345 | -99.06226 | 7301 ft | 0 kts | 241° |
| 2026-05-04 00:29 | 19.44322 | -99.06269 | 7302 ft | 32 kts | 240° |
| 2026-05-04 00:29 | 19.44065 | -99.06727 | 7305 ft | 109 kts | 239° |
| 2026-05-04 00:29 | 19.43575 | -99.07602 | 7305 ft | 166 kts | 239° |
| 2026-05-04 00:30 | 19.42955 | -99.08728 | 7824 ft | 179 kts | 239° |
| 2026-05-04 00:30 | 19.42317 | -99.09854 | 8913 ft | 176 kts | 237° |
| 2026-05-04 00:30 | 19.41692 | -99.10932 | 9434 ft | 167 kts | 239° |
| 2026-05-04 00:30 | 19.41069 | -99.12028 | 9633 ft | 182 kts | 238° |
| 2026-05-04 00:31 | 19.40437 | -99.13150 | 9763 ft | 200 kts | 239° |
| 2026-05-04 00:31 | 19.39680 | -99.14498 | 9904 ft | 222 kts | 239° |
| 2026-05-04 00:31 | 19.38851 | -99.15979 | 10073 ft | 242 kts | 239° |
| 2026-05-04 00:31 | 19.37978 | -99.17534 | 10406 ft | 254 kts | 239° |
| 2026-05-04 00:32 | 19.37072 | -99.19185 | 11011 ft | 258 kts | 244° |
| 2026-05-04 00:32 | 19.36739 | -99.21037 | 11571 ft | 262 kts | 278° |
| 2026-05-04 00:32 | 19.37460 | -99.22779 | 12135 ft | 266 kts | 309° |
| 2026-05-04 00:32 | 19.38793 | -99.24150 | 12778 ft | 268 kts | 321° |
| 2026-05-04 00:33 | 19.40308 | -99.25316 | 13455 ft | 270 kts | 326° |
| 2026-05-04 00:33 | 19.43441 | -99.27578 | 14713 ft | 273 kts | 324° |
| 2026-05-04 00:33 | 19.44989 | -99.28755 | 15287 ft | 275 kts | 323° |
| 2026-05-04 00:34 | 19.46528 | -99.29979 | 15851 ft | 278 kts | 321° |
| 2026-05-04 00:34 | 19.47760 | -99.31540 | 16359 ft | 281 kts | 292° |
| 2026-05-04 00:34 | 19.48070 | -99.33616 | 16604 ft | 299 kts | 265° |
| 2026-05-04 00:34 | 19.47602 | -99.35836 | 16804 ft | 319 kts | 252° |
| 2026-05-04 00:35 | 19.46771 | -99.38056 | 17227 ft | 329 kts | 248° |
| 2026-05-04 00:35 | 19.45808 | -99.40276 | 17788 ft | 334 kts | 246° |
| 2026-05-04 00:35 | 19.44833 | -99.42516 | 18361 ft | 337 kts | 247° |
| 2026-05-04 00:35 | 19.43887 | -99.44804 | 18891 ft | 340 kts | 249° |
| 2026-05-04 00:36 | 19.42980 | -99.47132 | 19394 ft | 343 kts | 250° |
| 2026-05-04 00:36 | 19.42102 | -99.49490 | 19899 ft | 346 kts | 251° |
| 2026-05-04 00:36 | 19.41239 | -99.51873 | 20397 ft | 348 kts | 251° |